createdAt,value
2022-12-13T00:00:14.790Z,-5.50
2022-12-13T00:03:02.276Z,-5.50
2022-12-13T00:05:50.125Z,-5.40
2022-12-13T00:08:38.327Z,-5.30
2022-12-13T00:11:25.869Z,-5.60
2022-12-13T00:14:14.262Z,-5.70
2022-12-13T00:17:03.046Z,-5.70
2022-12-13T00:19:50.798Z,-5.70
2022-12-13T00:22:38.840Z,-5.70
2022-12-13T00:25:29.032Z,-5.60
2022-12-13T00:28:16.619Z,-5.70
2022-12-13T00:31:20.031Z,-5.70
2022-12-13T00:34:13.662Z,-5.90
2022-12-13T00:37:01.586Z,-5.90
2022-12-13T00:39:51.417Z,-6.00
2022-12-13T00:42:39.321Z,-5.40
2022-12-13T00:45:26.931Z,-5.90
2022-12-13T00:48:15.217Z,-5.90
2022-12-13T00:51:08.436Z,-6.00
2022-12-13T00:53:55.977Z,-6.10
2022-12-13T00:56:43.862Z,-6.20
2022-12-13T00:59:31.279Z,-6.20
2022-12-13T01:02:18.658Z,-6.30
2022-12-13T01:05:06.958Z,-6.20
2022-12-13T01:07:56.304Z,-6.10
2022-12-13T01:10:44.838Z,-6.20
2022-12-13T01:13:34.056Z,-6.20
2022-12-13T01:16:21.886Z,-6.20
2022-12-13T01:19:09.227Z,-6.30
2022-12-13T01:21:56.582Z,-6.30
2022-12-13T01:24:45.926Z,-6.20
2022-12-13T01:27:34.038Z,-6.20
2022-12-13T01:30:21.558Z,-6.20
2022-12-13T01:33:13.858Z,-6.20
2022-12-13T01:36:02.934Z,-6.10
2022-12-13T01:38:51.062Z,-6.00
2022-12-13T01:41:39.715Z,-6.00
2022-12-13T01:44:46.155Z,-6.00
2022-12-13T01:47:37.106Z,-6.10
2022-12-13T01:50:26.474Z,-6.20
2022-12-13T01:53:15.872Z,-6.20
2022-12-13T01:56:05.918Z,-6.20
2022-12-13T01:58:56.222Z,-6.20
2022-12-13T02:01:43.910Z,-6.10
2022-12-13T02:04:34.866Z,-6.20
2022-12-13T02:07:32.898Z,-6.20
2022-12-13T02:10:20.547Z,-6.30
2022-12-13T02:13:08.565Z,-6.70
2022-12-13T02:16:00.953Z,-6.40
2022-12-13T02:18:56.913Z,-6.40
2022-12-13T02:21:55.265Z,-6.30
2022-12-13T02:24:50.049Z,-6.30
2022-12-13T02:27:52.332Z,-6.20
2022-12-13T02:30:53.001Z,-6.20
2022-12-13T02:33:43.984Z,-6.10
2022-12-13T02:36:36.129Z,-6.10
2022-12-13T02:39:30.558Z,-6.10
2022-12-13T02:42:21.814Z,-6.10
2022-12-13T02:45:20.899Z,-6.00
2022-12-13T02:48:11.060Z,-6.00
2022-12-13T02:51:00.259Z,-5.90
2022-12-13T02:53:47.560Z,-5.90
2022-12-13T02:56:35.400Z,-5.90
2022-12-13T02:59:23.231Z,-5.90
2022-12-13T03:02:31.071Z,-5.80
2022-12-13T03:05:45.544Z,-6.00
2022-12-13T03:08:38.224Z,-6.10
2022-12-13T03:11:49.510Z,-6.10
2022-12-13T03:14:40.013Z,-6.10
2022-12-13T03:17:28.127Z,-6.10
2022-12-13T03:20:22.833Z,-6.10
2022-12-13T03:23:13.379Z,-6.10
2022-12-13T03:26:02.813Z,-6.10
2022-12-13T03:28:50.260Z,-6.10
2022-12-13T03:31:37.934Z,-6.30
2022-12-13T03:34:26.242Z,-6.10
2022-12-13T03:37:33.565Z,-6.00
2022-12-13T03:40:22.694Z,-6.00
2022-12-13T03:43:12.519Z,-6.00
2022-12-13T03:45:59.868Z,-5.90
2022-12-13T03:48:47.626Z,-5.80
2022-12-13T03:51:35.670Z,-5.70
2022-12-13T03:54:23.341Z,-5.70
2022-12-13T03:57:12.282Z,-5.70
2022-12-13T03:59:59.726Z,-5.70
2022-12-13T04:02:47.118Z,-5.70
2022-12-13T04:05:35.316Z,-5.70
2022-12-13T04:08:23.010Z,-5.70
2022-12-13T04:11:30.310Z,-5.70
2022-12-13T04:14:22.706Z,-5.60
2022-12-13T04:17:11.189Z,-5.80
2022-12-13T04:19:58.296Z,-5.60
2022-12-13T04:22:45.825Z,-5.60
2022-12-13T04:25:33.471Z,-5.60
2022-12-13T04:28:21.732Z,-5.60
2022-12-13T04:31:11.392Z,-5.50
2022-12-13T04:33:59.219Z,-5.60
2022-12-13T04:36:47.017Z,-5.60
2022-12-13T04:39:34.892Z,-5.70
2022-12-13T04:42:22.216Z,-5.70
2022-12-13T04:45:11.124Z,-5.60
2022-12-13T04:48:00.227Z,-5.60
2022-12-13T04:50:48.264Z,-5.60
2022-12-13T04:53:36.225Z,-6.50
2022-12-13T04:56:24.919Z,-5.60
2022-12-13T04:59:12.299Z,-4.40
2022-12-13T05:02:00.247Z,-5.80
2022-12-13T05:04:49.190Z,-5.60
2022-12-13T05:07:43.479Z,-5.90
2022-12-13T05:10:36.046Z,-6.00
2022-12-13T05:13:25.148Z,-6.10
2022-12-13T05:16:16.033Z,-6.30
2022-12-13T05:19:03.644Z,-6.20
2022-12-13T05:21:52.799Z,-6.20
2022-12-13T05:24:43.079Z,-6.30
2022-12-13T05:27:31.026Z,-6.30
2022-12-13T05:30:18.750Z,-6.30
2022-12-13T05:33:09.572Z,-6.50
2022-12-13T05:36:01.328Z,-6.40
2022-12-13T05:38:51.033Z,-6.50
2022-12-13T05:41:39.538Z,-6.40
2022-12-13T05:44:29.901Z,-5.50
2022-12-13T05:47:18.244Z,-6.50
2022-12-13T05:50:06.296Z,-6.50
2022-12-13T05:52:54.057Z,-6.50
2022-12-13T05:55:44.068Z,-6.60
2022-12-13T05:58:35.751Z,-6.50
2022-12-13T06:01:24.670Z,-6.60
2022-12-13T06:04:13.118Z,-6.70
2022-12-13T06:07:12.426Z,-6.60
2022-12-13T06:10:10.547Z,-6.60
2022-12-13T06:13:00.876Z,-6.20
2022-12-13T06:15:48.941Z,-6.50
2022-12-13T06:18:37.013Z,-6.20
2022-12-13T06:21:25.449Z,-5.80
2022-12-13T06:24:13.568Z,-5.80
2022-12-13T06:27:01.318Z,-6.00
2022-12-13T06:29:50.146Z,-6.50
2022-12-13T06:32:43.759Z,-6.00
2022-12-13T06:35:35.248Z,-6.10
2022-12-13T06:38:31.412Z,-6.20
2022-12-13T06:41:20.297Z,-6.20
2022-12-13T06:44:08.257Z,-6.20
2022-12-13T06:47:12.092Z,-6.20
2022-12-13T06:50:05.065Z,-6.10
2022-12-13T06:52:53.340Z,-5.90
2022-12-13T06:55:40.395Z,-6.20
2022-12-13T06:58:28.708Z,-6.20
2022-12-13T07:01:24.063Z,-6.10
2022-12-13T07:04:29.455Z,-6.10
2022-12-13T07:07:18.748Z,-5.70
2022-12-13T07:10:06.979Z,-7.70
2022-12-13T07:13:00.263Z,-6.00
2022-12-13T07:15:48.181Z,-6.10
2022-12-13T07:18:35.970Z,-6.20
2022-12-13T07:21:27.630Z,-6.30
2022-12-13T07:24:15.175Z,-6.30
2022-12-13T07:27:02.978Z,-6.40
2022-12-13T07:29:51.290Z,-6.30
2022-12-13T07:32:38.545Z,-6.30
2022-12-13T07:35:25.667Z,-4.90
2022-12-13T07:38:15.205Z,-6.40
2022-12-13T07:41:05.528Z,-6.50
2022-12-13T07:43:55.312Z,-6.50
2022-12-13T07:46:43.294Z,-6.40
2022-12-13T07:49:30.783Z,-6.40
2022-12-13T07:52:18.320Z,-6.40
2022-12-13T07:55:08.273Z,-6.30
2022-12-13T07:57:56.899Z,-6.10
2022-12-13T08:00:46.498Z,-6.20
2022-12-13T08:03:34.591Z,-6.30
2022-12-13T08:06:22.388Z,-6.20
2022-12-13T08:09:13.448Z,-6.30
2022-12-13T08:12:02.948Z,-6.30
2022-12-13T08:14:53.090Z,-6.30
2022-12-13T08:17:41.004Z,-6.20
2022-12-13T08:20:28.310Z,-6.50
2022-12-13T08:23:16.021Z,-3.90
2022-12-13T08:26:04.281Z,-6.00
2022-12-13T08:28:53.465Z,-6.00
2022-12-13T08:31:41.477Z,-6.00
2022-12-13T08:34:28.914Z,-6.00
2022-12-13T08:37:17.213Z,-5.80
2022-12-13T08:40:06.412Z,-5.80
2022-12-13T08:42:56.622Z,-5.70
2022-12-13T08:45:45.392Z,-5.60
2022-12-13T08:48:32.975Z,-5.50
2022-12-13T08:51:24.277Z,-5.40
2022-12-13T08:54:13.241Z,-5.30
2022-12-13T08:57:19.265Z,-5.30
2022-12-13T09:00:08.084Z,-5.30
2022-12-13T09:03:00.870Z,-5.40
2022-12-13T09:05:48.256Z,-5.30
2022-12-13T09:08:36.021Z,-5.20
2022-12-13T09:11:34.540Z,-5.10
2022-12-13T09:14:24.060Z,-4.90
2022-12-13T09:17:14.755Z,-4.70
2022-12-13T09:20:28.616Z,-4.50
2022-12-13T09:23:24.259Z,-4.30
2022-12-13T09:26:15.031Z,-4.00
2022-12-13T09:29:11.381Z,-4.40
2022-12-13T09:31:59.782Z,-4.50
2022-12-13T09:34:48.811Z,-4.50
2022-12-13T09:37:45.602Z,-4.60
2022-12-13T09:40:37.495Z,-4.40
2022-12-13T09:43:31.884Z,-4.30
2022-12-13T09:46:24.482Z,-5.10
2022-12-13T09:49:14.776Z,-3.90
2022-12-13T09:52:21.400Z,-3.70
2022-12-13T09:55:19.392Z,-3.70
2022-12-13T09:58:08.472Z,-3.70
2022-12-13T10:00:56.885Z,-3.60
2022-12-13T10:03:47.537Z,-3.60
2022-12-13T10:06:38.001Z,-3.60
2022-12-13T10:09:26.251Z,-3.70
2022-12-13T10:12:15.845Z,-3.60
2022-12-13T10:15:04.777Z,-3.60
2022-12-13T10:17:55.519Z,-3.70
2022-12-13T10:20:43.808Z,-3.70
2022-12-13T10:23:59.419Z,-3.80
2022-12-13T10:26:39.942Z,-3.70
2022-12-13T10:29:29.553Z,-3.60
2022-12-13T10:32:19.871Z,-3.50
2022-12-13T10:35:13.652Z,-3.40
2022-12-13T10:38:02.524Z,-3.10
2022-12-13T10:40:50.263Z,-3.10
2022-12-13T10:43:38.718Z,-2.90
2022-12-13T10:46:38.652Z,-3.10
2022-12-13T10:49:28.172Z,-3.00
2022-12-13T10:52:31.250Z,-2.80
2022-12-13T10:55:26.196Z,-2.80
2022-12-13T10:58:19.590Z,-2.80
2022-12-13T11:01:14.562Z,-2.70
2022-12-13T11:04:04.517Z,-2.70
2022-12-13T11:06:52.883Z,-2.70
2022-12-13T11:09:43.406Z,-2.70
2022-12-13T11:12:41.524Z,-2.70
2022-12-13T11:15:31.244Z,-2.60
2022-12-13T11:18:21.939Z,-2.70
2022-12-13T11:21:12.082Z,-0.10
2022-12-13T11:24:02.276Z,-2.40
2022-12-13T11:26:53.941Z,-2.70
2022-12-13T11:29:59.358Z,-2.30
2022-12-13T11:32:59.286Z,-2.40
2022-12-13T11:35:57.981Z,-2.20
2022-12-13T11:38:57.937Z,-2.70
2022-12-13T11:41:53.072Z,-1.90
2022-12-13T11:44:48.594Z,-1.90
2022-12-13T11:47:38.848Z,-1.80
2022-12-13T11:50:33.211Z,-1.70
2022-12-13T11:53:27.985Z,-1.50
2022-12-13T11:56:20.678Z,-0.20
2022-12-13T11:59:20.749Z,-1.30
2022-12-13T12:02:17.609Z,-1.40
2022-12-13T12:05:07.573Z,-1.30
2022-12-13T12:08:32.434Z,-1.30
2022-12-13T12:11:10.233Z,-1.10
2022-12-13T12:14:04.736Z,-1.10
2022-12-13T12:16:53.833Z,-1.00
2022-12-13T12:19:44.984Z,-0.90
2022-12-13T12:22:39.072Z,-1.00
2022-12-13T12:25:29.166Z,-0.90
2022-12-13T12:28:22.659Z,-0.90
2022-12-13T12:31:14.954Z,-0.80
2022-12-13T12:34:05.669Z,-0.80
2022-12-13T12:37:03.039Z,-2.00
2022-12-13T12:40:02.083Z,-0.80
2022-12-13T12:46:08.013Z,-0.60
2022-12-13T12:49:06.035Z,-0.50
2022-12-13T12:51:58.978Z,-0.50
2022-12-13T12:54:52.707Z,-0.60
2022-12-13T12:57:47.847Z,-0.60
2022-12-13T13:00:41.959Z,-0.60
2022-12-13T13:03:30.925Z,-0.60
2022-12-13T13:06:23.226Z,-0.60
2022-12-13T13:09:11.960Z,-0.60
2022-12-13T13:12:00.228Z,-0.60
2022-12-13T13:14:47.778Z,-0.50
2022-12-13T13:17:48.272Z,-0.50
2022-12-13T13:20:35.843Z,-0.50
2022-12-13T13:23:39.930Z,-0.40
2022-12-13T13:26:36.386Z,-0.40
2022-12-13T13:29:31.907Z,-0.40
2022-12-13T13:32:29.482Z,-0.30
2022-12-13T13:35:56.700Z,-0.30
2022-12-13T13:39:03.798Z,-0.30
2022-12-13T13:41:56.349Z,-0.20
2022-12-13T13:44:58.418Z,0.10
2022-12-13T13:47:49.264Z,-0.30
2022-12-13T13:51:07.263Z,-0.30
2022-12-13T13:54:21.658Z,-0.30
2022-12-13T13:58:07.204Z,-0.30
2022-12-13T14:00:46.513Z,-0.30
2022-12-13T14:04:06.777Z,-0.30
2022-12-13T14:07:26.481Z,-0.40
2022-12-13T14:10:24.355Z,0.70
2022-12-13T14:13:26.969Z,-0.50
2022-12-13T14:16:29.515Z,-0.70
2022-12-13T14:19:33.940Z,-0.50
2022-12-13T14:22:31.713Z,-0.60
2022-12-13T14:25:27.888Z,-0.60
2022-12-13T14:28:23.692Z,-0.60
2022-12-13T14:31:20.087Z,-0.90
2022-12-13T14:34:18.031Z,-0.60
2022-12-13T14:37:08.124Z,-0.70
2022-12-13T14:39:55.914Z,-0.60
2022-12-13T14:42:48.041Z,-0.60
2022-12-13T14:45:37.634Z,-0.60
2022-12-13T14:48:28.009Z,-0.90
2022-12-13T14:51:26.705Z,-0.70
2022-12-13T14:54:25.632Z,-0.70
2022-12-13T14:57:18.294Z,-0.80
2022-12-13T15:00:20.457Z,-0.80
2022-12-13T15:03:08.417Z,-0.90
2022-12-13T15:05:57.383Z,-1.00
2022-12-13T15:08:46.344Z,-1.00
2022-12-13T15:11:37.988Z,-1.10
2022-12-13T15:14:25.838Z,-1.10
2022-12-13T15:17:26.662Z,-1.30
2022-12-13T15:20:23.095Z,-1.30
2022-12-13T15:23:15.741Z,-1.50
2022-12-13T15:26:08.926Z,-1.40
2022-12-13T15:28:59.370Z,-0.20
2022-12-13T15:31:49.236Z,-1.50
2022-12-13T15:34:37.816Z,-1.50
2022-12-13T15:37:29.725Z,-1.60
2022-12-13T15:40:25.036Z,-1.60
2022-12-13T15:43:15.710Z,-1.60
2022-12-13T15:46:06.677Z,-1.70
2022-12-13T15:48:55.805Z,-1.70
2022-12-13T15:51:54.616Z,-1.80
2022-12-13T15:54:42.371Z,-1.80
2022-12-13T15:57:30.396Z,-2.60
2022-12-13T16:00:29.551Z,-1.90
2022-12-13T16:03:21.403Z,-1.80
2022-12-13T16:06:10.021Z,-1.80
2022-12-13T16:09:01.030Z,-1.90
2022-12-13T16:11:50.343Z,-1.90
2022-12-13T16:14:49.611Z,-1.90
2022-12-13T16:17:37.832Z,-1.90
2022-12-13T16:20:28.244Z,-2.00
2022-12-13T16:23:27.077Z,-2.00
2022-12-13T16:26:18.824Z,-2.00
2022-12-13T16:29:08.929Z,-2.00
2022-12-13T16:32:01.515Z,-2.00
2022-12-13T16:34:57.898Z,-2.00
2022-12-13T16:37:47.912Z,-2.20
2022-12-13T16:40:35.973Z,-3.70
2022-12-13T16:43:31.300Z,-2.00
2022-12-13T16:47:11.874Z,-2.00
2022-12-13T16:49:29.297Z,-2.00
2022-12-13T16:52:19.061Z,-2.00
2022-12-13T16:55:09.455Z,-2.00
2022-12-13T16:57:58.059Z,-2.00
2022-12-13T17:00:46.029Z,-2.00
2022-12-13T17:03:33.631Z,-2.10
2022-12-13T17:06:24.307Z,-2.00
2022-12-13T17:09:11.890Z,-2.10
2022-12-13T17:12:01.380Z,-2.10
2022-12-13T17:14:48.882Z,-2.00
2022-12-13T17:17:37.750Z,-2.00
2022-12-13T17:20:27.038Z,-2.00
2022-12-13T17:23:18.448Z,-2.00
2022-12-13T17:26:06.945Z,-2.00
2022-12-13T17:28:55.954Z,-2.00
2022-12-13T17:31:44.800Z,-2.00
2022-12-13T17:34:32.656Z,-2.10
2022-12-13T17:37:19.970Z,-2.10
2022-12-13T17:40:07.945Z,-2.00
2022-12-13T17:42:55.554Z,-2.00
2022-12-13T17:45:44.416Z,-1.70
2022-12-13T17:48:37.805Z,-2.00
2022-12-13T17:51:27.792Z,-1.80
2022-12-13T17:54:16.227Z,-2.00
2022-12-13T17:57:03.715Z,-2.00
2022-12-13T17:59:50.903Z,-1.90
2022-12-13T18:02:40.947Z,-1.90
2022-12-13T18:05:28.101Z,-1.90
2022-12-13T18:08:15.561Z,-1.90
2022-12-13T18:11:31.130Z,-2.00
2022-12-13T18:14:11.596Z,-2.00
2022-12-13T18:16:58.878Z,-2.00
2022-12-13T18:19:48.046Z,-2.00
2022-12-13T18:22:41.836Z,-2.00
2022-12-13T18:25:30.457Z,-1.80
2022-12-13T18:28:17.920Z,-2.00
2022-12-13T18:31:09.535Z,-2.00
2022-12-13T18:33:57.255Z,-1.90
2022-12-13T18:36:46.082Z,-2.00
2022-12-13T18:39:35.088Z,-2.00
2022-12-13T18:42:22.294Z,-2.10
2022-12-13T18:45:10.052Z,-2.00
2022-12-13T18:47:57.654Z,-2.10
2022-12-13T18:50:48.739Z,-2.00
2022-12-13T18:53:38.338Z,-2.10
2022-12-13T18:56:26.558Z,-2.00
2022-12-13T18:59:14.173Z,-2.00
2022-12-13T19:02:02.515Z,-2.00
2022-12-13T19:04:55.577Z,-2.10
2022-12-13T19:07:42.911Z,-4.20
2022-12-13T19:10:33.567Z,-2.10
2022-12-13T19:13:25.459Z,-1.60
2022-12-13T19:16:14.469Z,-2.30
2022-12-13T19:19:01.827Z,-2.30
2022-12-13T19:21:49.638Z,-2.30
2022-12-13T19:24:37.567Z,-2.40
2022-12-13T19:27:26.385Z,-2.30
2022-12-13T19:30:14.665Z,-2.20
2022-12-13T19:33:01.835Z,-2.40
2022-12-13T19:35:49.676Z,-2.40
2022-12-13T19:38:37.208Z,-2.40
2022-12-13T19:41:26.282Z,-2.50
2022-12-13T19:44:15.761Z,-2.60
2022-12-13T19:47:09.652Z,-2.60
2022-12-13T19:49:59.916Z,-3.70
2022-12-13T19:52:47.583Z,-2.70
2022-12-13T19:55:34.915Z,-2.80
2022-12-13T19:58:23.382Z,-2.80
2022-12-13T20:01:13.173Z,-2.80
2022-12-13T20:04:01.817Z,-2.80
2022-12-13T20:06:49.023Z,-2.40
2022-12-13T20:09:36.591Z,-2.80
2022-12-13T20:12:23.796Z,-2.90
2022-12-13T20:15:11.523Z,-2.80
2022-12-13T20:18:00.833Z,-2.70
2022-12-13T20:21:10.660Z,-2.60
2022-12-13T20:23:57.846Z,-2.30
2022-12-13T20:26:45.641Z,-2.50
2022-12-13T20:29:36.821Z,-2.60
2022-12-13T20:32:24.306Z,-2.70
2022-12-13T20:35:12.945Z,-2.70
2022-12-13T20:38:00.108Z,-2.80
2022-12-13T20:40:47.645Z,-2.80
2022-12-13T20:43:35.634Z,-2.70
2022-12-13T20:46:24.515Z,-3.80
2022-12-13T20:49:12.286Z,-2.70
2022-12-13T20:52:01.150Z,-2.60
2022-12-13T20:54:48.309Z,-2.60
2022-12-13T20:57:35.445Z,-2.60
2022-12-13T21:00:25.216Z,-2.60
2022-12-13T21:03:13.266Z,-2.70
2022-12-13T21:06:01.017Z,-2.30
2022-12-13T21:08:52.665Z,-2.70
2022-12-13T21:11:41.619Z,-2.70
2022-12-13T21:14:30.132Z,-2.80
2022-12-13T21:17:18.580Z,-2.90
2022-12-13T21:20:06.605Z,-3.00
2022-12-13T21:22:54.416Z,-3.10
2022-12-13T21:25:46.248Z,-3.10
2022-12-13T21:28:36.477Z,-3.30
2022-12-13T21:31:24.582Z,-3.30
2022-12-13T21:34:12.505Z,-3.20
2022-12-13T21:37:00.364Z,-3.20
2022-12-13T21:39:47.944Z,-3.10
2022-12-13T21:42:37.141Z,-2.90
2022-12-13T21:45:25.224Z,-3.10
2022-12-13T21:48:15.194Z,-3.10
2022-12-13T21:51:03.367Z,-3.20
2022-12-13T21:53:51.029Z,-3.30
2022-12-13T21:56:56.432Z,-3.30
2022-12-13T21:59:45.729Z,-3.40
2022-12-13T22:02:33.316Z,-3.40
2022-12-13T22:05:20.483Z,-3.10
2022-12-13T22:08:07.944Z,-3.50
2022-12-13T22:11:20.923Z,-3.50
2022-12-13T22:14:08.792Z,-3.80
2022-12-13T22:16:57.277Z,-3.40
2022-12-13T22:19:48.582Z,-3.30
2022-12-13T22:22:36.583Z,-3.20
2022-12-13T22:25:24.744Z,-3.20
2022-12-13T22:28:12.631Z,-3.80
2022-12-13T22:31:00.031Z,-3.10
2022-12-13T22:33:49.031Z,-3.30
2022-12-13T22:36:36.665Z,-3.40
2022-12-13T22:39:24.634Z,-3.50
2022-12-13T22:42:12.727Z,-3.60
2022-12-13T22:45:00.168Z,-3.50
2022-12-13T22:47:47.695Z,-3.60
2022-12-13T22:50:36.723Z,-3.70
2022-12-13T22:53:24.780Z,-3.70
2022-12-13T22:56:13.290Z,-3.80
2022-12-13T22:59:02.372Z,-3.90
2022-12-13T23:01:54.344Z,-4.00
2022-12-13T23:04:44.404Z,-3.80
2022-12-13T23:07:35.346Z,-3.90
2022-12-13T23:10:40.932Z,-3.90
2022-12-13T23:13:28.429Z,-3.90
2022-12-13T23:16:15.960Z,-3.90
2022-12-13T23:19:32.108Z,-3.90
2022-12-13T23:22:12.699Z,-4.00
2022-12-13T23:25:01.431Z,-4.10
2022-12-13T23:27:49.066Z,-4.20
2022-12-13T23:30:37.321Z,-4.30
2022-12-13T23:33:24.436Z,-4.60
2022-12-13T23:36:12.657Z,-4.50
2022-12-13T23:39:00.028Z,-4.50
2022-12-13T23:41:49.211Z,-4.60
2022-12-13T23:44:37.125Z,-4.60
2022-12-13T23:47:24.396Z,-4.60
2022-12-13T23:50:12.045Z,-4.60
2022-12-13T23:52:59.390Z,-4.60
2022-12-13T23:55:49.172Z,-4.00
2022-12-13T23:58:39.514Z,-4.60
